Main page
METAR-TAF:

METAR-TAF

Airports :

Tirana, Albania

Tirana International Airport Nënë Tereza

latitude: 41-20N, longitude: 019-47E, elevation: 89 m

Current weather observation

The report was made 6 minutes ago, at 09:50 UTC
Wind 3 kt from variable directions
Temperature 25°C
Humidity 47%
Pressure 1023 hPa
Visibility 10 km or more
no clouds below 1500 m and no cumulonimbus

METAR: LATI 190950Z VRB03KT CAVOK 25/13 Q1023 NOSIG

Time: 11:56 (09:56 UTC)

Forecast

The report was made 4 hours and 56 minutes ago, at 05:00 UTC
Forecast valid from 19 at 06 UTC to 20 at 06 UTC
Wind 5 kt from variable directions
Visibility 10 km or more
Few clouds at a height of 5000 ft
Scattered clouds at a height of 10000 ft
Temporary
from 19 at 11 UTC to 19 at 17 UTC
Wind 10 kt from the Northwest
Few clouds at a height of 3000 ft, Towering cumulus.
Scattered clouds at a height of 7000 ft

TAF: LATI 190500Z 1906/2006 VRB05KT 9999 FEW050 SCT100 TEMPO 1911/1917 32010KT FEW030TCU SCT070

Weather observations and forecasts of more than 4000 airports (METAR and TAF reports).

The available stations are represented by yellow and red dots on the map.

Hover mouse over dot to see the name of the station.

Then click to see weather observations and forecasts.

To change the map : click on the green buttons with a black cross to zoom in, on the green button with a dash to zoom out, or on the green arrows for adjacent maps.


METAR-TAF: